createdAt,value
2018-02-20T00:01:28.384Z,41.75
2018-02-20T00:03:55.939Z,50.70
2018-02-20T00:06:23.501Z,61.15
2018-02-20T00:08:51.069Z,48.42
2018-02-20T00:11:18.603Z,51.20
2018-02-20T00:13:46.929Z,48.90
2018-02-20T00:16:14.504Z,47.72
2018-02-20T00:18:42.058Z,48.75
2018-02-20T00:21:09.629Z,48.13
2018-02-20T00:23:37.169Z,54.97
2018-02-20T00:26:04.725Z,46.88
2018-02-20T00:28:32.260Z,46.35
2018-02-20T00:30:59.821Z,45.05
2018-02-20T00:33:27.362Z,47.83
2018-02-20T00:35:55.689Z,49.80
2018-02-20T00:38:23.240Z,44.05
2018-02-20T00:40:50.777Z,48.65
2018-02-20T00:43:18.344Z,55.38
2018-02-20T00:45:45.890Z,45.58
2018-02-20T00:48:14.221Z,47.03
2018-02-20T00:50:41.784Z,45.63
2018-02-20T00:53:09.341Z,50.28
2018-02-20T00:55:36.895Z,45.75
2018-02-20T00:58:04.458Z,50.78
2018-02-20T01:00:31.997Z,44.42
2018-02-20T01:02:59.550Z,51.45
2018-02-20T01:05:27.098Z,46.45
2018-02-20T01:07:54.666Z,54.75
2018-02-20T01:10:22.213Z,48.60
2018-02-20T01:12:50.550Z,45.22
2018-02-20T01:15:18.092Z,45.83
2018-02-20T01:17:45.683Z,49.03
2018-02-20T01:20:13.218Z,46.85
2018-02-20T01:22:40.772Z,49.58
2018-02-20T01:25:08.332Z,48.72
2018-02-20T01:27:35.876Z,47.72
2018-02-20T01:30:03.436Z,54.38
2018-02-20T01:32:30.989Z,46.28
2018-02-20T01:34:58.559Z,48.53
2018-02-20T01:37:26.105Z,46.72
2018-02-20T01:39:53.657Z,47.70
2018-02-20T01:42:21.193Z,57.95
2018-02-20T01:44:49.517Z,47.17
2018-02-20T01:47:17.067Z,48.63
2018-02-20T01:49:44.648Z,51.37
2018-02-20T01:52:12.187Z,57.97
2018-02-20T01:54:39.738Z,52.30
2018-02-20T01:57:07.307Z,53.58
2018-02-20T01:59:34.840Z,49.83
2018-02-20T02:02:03.168Z,49.17
2018-02-20T02:04:30.703Z,44.95
2018-02-20T02:06:58.261Z,66.97
2018-02-20T02:09:25.808Z,47.72
2018-02-20T02:11:53.491Z,47.67
2018-02-20T02:14:21.038Z,43.75
2018-02-20T02:16:48.596Z,54.58
2018-02-20T02:19:16.144Z,50.78
2018-02-20T02:21:43.696Z,51.37
2018-02-20T02:24:12.039Z,50.88
2018-02-20T02:26:39.613Z,53.50
2018-02-20T02:29:07.152Z,52.75
2018-02-20T02:31:34.689Z,47.65
2018-02-20T02:34:02.256Z,47.78
2018-02-20T02:36:29.786Z,48.83
2018-02-20T02:38:57.344Z,58.67
2018-02-20T02:41:24.906Z,51.40
2018-02-20T02:43:52.470Z,53.80
2018-02-20T02:46:20.014Z,56.55
2018-02-20T02:48:48.338Z,48.45
2018-02-20T02:51:15.874Z,53.97
2018-02-20T02:53:43.429Z,47.00
2018-02-20T02:56:10.964Z,55.78
2018-02-20T02:58:39.284Z,50.72
2018-02-20T03:01:06.820Z,54.10
2018-02-20T03:03:34.378Z,55.55
2018-02-20T03:06:01.930Z,49.13
2018-02-20T03:08:30.254Z,61.25
2018-02-20T03:10:57.795Z,55.67
2018-02-20T03:13:25.344Z,54.50
2018-02-20T03:15:52.888Z,51.00
2018-02-20T03:18:20.448Z,58.78
2018-02-20T03:20:48.780Z,58.30
2018-02-20T03:23:16.330Z,52.13
2018-02-20T03:25:43.888Z,57.30
2018-02-20T03:28:11.424Z,57.92
2018-02-20T03:30:39.001Z,55.28
2018-02-20T03:33:06.569Z,64.60
2018-02-20T03:35:34.113Z,57.00
2018-02-20T03:38:01.672Z,52.70
2018-02-20T03:40:29.320Z,51.53
2018-02-20T03:42:56.896Z,55.30
2018-02-20T03:45:24.444Z,51.47
2018-02-20T03:47:52.011Z,55.60
2018-02-20T03:50:19.569Z,51.03
2018-02-20T03:52:47.128Z,56.30
2018-02-20T03:55:14.696Z,52.90
2018-02-20T03:57:42.232Z,61.25
2018-02-20T04:00:09.804Z,64.78
2018-02-20T04:02:37.366Z,53.25
2018-02-20T04:05:04.914Z,55.30
2018-02-20T04:07:32.472Z,44.85
2018-02-20T04:10:00.015Z,47.33
2018-02-20T04:12:28.336Z,52.47
2018-02-20T04:14:55.874Z,49.13
2018-02-20T04:17:23.433Z,53.35
2018-02-20T04:19:51.036Z,52.33
2018-02-20T04:22:18.624Z,51.92
2018-02-20T04:24:46.929Z,46.65
2018-02-20T04:27:14.473Z,47.85
2018-02-20T04:29:42.805Z,52.45
2018-02-20T04:32:10.336Z,49.42
2018-02-20T04:34:37.912Z,58.25
2018-02-20T04:37:05.468Z,42.90
2018-02-20T04:39:33.029Z,41.97
2018-02-20T04:42:00.571Z,46.08
2018-02-20T04:44:28.126Z,45.35
2018-02-20T04:46:55.663Z,47.28
2018-02-20T04:49:23.230Z,51.78
2018-02-20T04:51:51.530Z,42.13
2018-02-20T04:54:19.098Z,46.90
2018-02-20T04:56:46.633Z,45.38
2018-02-20T04:59:14.192Z,47.45
2018-02-20T05:01:41.798Z,44.28
2018-02-20T05:04:09.405Z,55.28
2018-02-20T05:06:37.706Z,46.75
2018-02-20T05:09:05.260Z,49.90
2018-02-20T05:11:32.811Z,47.28
2018-02-20T05:14:00.368Z,54.13
2018-02-20T05:16:27.928Z,50.45
2018-02-20T05:18:55.488Z,50.40
2018-02-20T05:21:23.045Z,52.60
2018-02-20T05:23:50.594Z,55.90
2018-02-20T05:26:18.145Z,43.35
2018-02-20T05:28:47.308Z,56.08
2018-02-20T05:31:14.864Z,52.13
2018-02-20T05:33:42.432Z,56.15
2018-02-20T05:36:10.019Z,50.12
2018-02-20T05:38:38.332Z,52.67
2018-02-20T05:41:05.910Z,52.03
2018-02-20T05:43:33.468Z,53.92
2018-02-20T05:46:01.005Z,60.30
2018-02-20T05:48:28.569Z,49.58
2018-02-20T05:50:56.121Z,54.47
2018-02-20T05:53:23.685Z,48.20
2018-02-20T05:55:51.214Z,51.70
2018-02-20T05:58:18.793Z,52.22
2018-02-20T06:00:47.110Z,49.60
2018-02-20T06:03:14.672Z,46.63
2018-02-20T06:05:42.259Z,52.75
2018-02-20T06:08:09.826Z,53.25
2018-02-20T06:10:37.361Z,46.22
2018-02-20T06:13:04.926Z,53.00
2018-02-20T06:15:32.497Z,47.17
2018-02-20T06:18:00.038Z,44.35
2018-02-20T06:20:27.616Z,49.05
2018-02-20T06:22:55.172Z,48.03
2018-02-20T06:25:22.729Z,51.65
2018-02-20T06:27:50.571Z,47.17
2018-02-20T06:30:18.124Z,51.25
2018-02-20T06:32:46.473Z,51.00
2018-02-20T06:35:14.778Z,56.17
2018-02-20T06:37:42.340Z,52.95
2018-02-20T06:40:09.874Z,51.60
2018-02-20T06:42:38.265Z,54.10
2018-02-20T06:45:05.813Z,48.60
2018-02-20T06:47:33.372Z,49.80
2018-02-20T06:50:02.428Z,50.38
2018-02-20T06:52:30.010Z,47.28
2018-02-20T06:54:58.334Z,51.47
2018-02-20T06:57:25.907Z,53.63
2018-02-20T06:59:53.452Z,49.17
2018-02-20T07:02:21.015Z,50.25
2018-02-20T07:04:48.553Z,47.70
2018-02-20T07:07:16.917Z,35.65
2018-02-20T07:09:45.226Z,28.00
2018-02-20T07:12:12.781Z,45.47
2018-02-20T07:14:40.317Z,42.20
2018-02-20T07:17:08.660Z,48.90
2018-02-20T07:19:36.216Z,46.47
2018-02-20T07:22:03.768Z,47.90
2018-02-20T07:24:31.296Z,42.00
2018-02-20T07:26:58.849Z,39.75
2018-02-20T07:29:26.381Z,41.13
2018-02-20T07:31:53.938Z,33.53
2018-02-20T07:34:21.481Z,35.10
2018-02-20T07:36:49.025Z,29.23
2018-02-20T07:39:16.607Z,25.62
2018-02-20T07:41:44.155Z,25.55
2018-02-20T07:44:11.721Z,24.50
2018-02-20T07:46:39.274Z,23.95
2018-02-20T07:49:06.841Z,20.70
2018-02-20T07:51:34.419Z,23.02
2018-02-20T07:54:01.991Z,25.17
2018-02-20T07:56:30.304Z,20.10
2018-02-20T07:58:57.862Z,21.50
2018-02-20T08:01:25.388Z,21.48
2018-02-20T08:03:53.695Z,22.30
2018-02-20T08:06:21.256Z,17.35
2018-02-20T08:08:48.918Z,22.25
2018-02-20T08:11:16.464Z,18.67
2018-02-20T08:13:44.001Z,18.67
2018-02-20T08:16:12.325Z,25.08
2018-02-20T08:18:39.891Z,19.98
2018-02-20T08:21:07.452Z,22.90
2018-02-20T08:23:34.988Z,21.35
2018-02-20T08:26:02.547Z,17.05
2018-02-20T08:28:30.097Z,19.20
2018-02-20T08:30:57.657Z,22.77
2018-02-20T08:33:26.058Z,18.40
2018-02-20T08:35:53.620Z,18.48
2018-02-20T08:38:21.160Z,20.40
2018-02-20T08:40:48.685Z,17.62
2018-02-20T08:43:16.242Z,14.70
2018-02-20T08:45:43.780Z,18.80
2018-02-20T08:48:11.380Z,17.00
2018-02-20T08:50:39.694Z,17.62
2018-02-20T08:53:07.301Z,19.98
2018-02-20T08:55:34.869Z,16.98
2018-02-20T08:58:02.428Z,13.23
2018-02-20T09:00:29.983Z,22.98
2018-02-20T09:02:58.448Z,17.10
2018-02-20T09:05:25.987Z,15.05
2018-02-20T09:07:53.577Z,17.52
2018-02-20T09:10:22.619Z,20.40
2018-02-20T09:12:51.213Z,17.67
2018-02-20T09:15:18.779Z,20.62
2018-02-20T09:17:46.340Z,15.15
2018-02-20T09:20:13.864Z,16.90
2018-02-20T09:22:42.178Z,20.02
2018-02-20T09:25:09.733Z,18.65
2018-02-20T09:27:37.280Z,19.73
2018-02-20T09:30:04.829Z,17.60
2018-02-20T09:32:32.385Z,18.90
2018-02-20T09:35:00.713Z,17.45
2018-02-20T09:37:28.250Z,18.85
2018-02-20T09:39:55.824Z,17.05
2018-02-20T09:42:23.369Z,16.15
2018-02-20T09:44:50.922Z,17.95
2018-02-20T09:47:18.471Z,20.27
2018-02-20T09:49:46.041Z,17.05
2018-02-20T09:52:13.601Z,18.55
2018-02-20T09:54:41.178Z,16.75
2018-02-20T09:57:08.728Z,22.27
2018-02-20T09:59:36.294Z,19.25
2018-02-20T10:02:03.848Z,14.02
2018-02-20T10:04:31.385Z,14.82
2018-02-20T10:06:58.941Z,15.98
2018-02-20T10:09:26.480Z,21.20
2018-02-20T10:11:54.089Z,17.05
2018-02-20T10:14:21.648Z,15.52
2018-02-20T10:16:49.964Z,20.35
2018-02-20T10:19:17.517Z,17.62
2018-02-20T10:21:45.080Z,21.58
2018-02-20T10:24:12.625Z,20.92
2018-02-20T10:26:40.213Z,21.55
2018-02-20T10:29:07.750Z,20.37
2018-02-20T10:31:35.325Z,22.45
2018-02-20T10:34:02.857Z,21.42
2018-02-20T10:36:30.442Z,21.33
2018-02-20T10:38:58.744Z,20.17
2018-02-20T10:41:27.077Z,21.75
2018-02-20T10:43:54.648Z,21.08
2018-02-20T10:46:22.189Z,21.75
2018-02-20T10:48:49.749Z,21.33
2018-02-20T10:51:17.308Z,22.15
2018-02-20T10:53:44.849Z,26.98
2018-02-20T10:56:12.414Z,21.70
2018-02-20T10:58:40.021Z,20.27
2018-02-20T11:01:07.593Z,22.62
2018-02-20T11:03:35.897Z,22.27
2018-02-20T11:06:03.477Z,24.65
2018-02-20T11:08:31.014Z,25.90
2018-02-20T11:10:58.561Z,28.80
2018-02-20T11:13:26.900Z,25.50
2018-02-20T11:15:54.440Z,23.00
2018-02-20T11:18:22.000Z,26.08
2018-02-20T11:20:50.308Z,27.00
2018-02-20T11:23:17.867Z,26.60
2018-02-20T11:25:45.433Z,26.10
2018-02-20T11:28:13.197Z,23.40
2018-02-20T11:30:40.764Z,25.00
2018-02-20T11:33:08.332Z,24.10
2018-02-20T11:35:35.889Z,21.48
2018-02-20T11:38:03.434Z,22.50
2018-02-20T11:40:31.061Z,25.55
2018-02-20T11:42:59.373Z,29.20
2018-02-20T11:45:26.937Z,32.25
2018-02-20T11:47:54.485Z,38.30
2018-02-20T11:50:22.051Z,45.53
2018-02-20T11:52:49.627Z,35.03
2018-02-20T11:55:17.169Z,37.53
2018-02-20T11:57:44.744Z,34.83
2018-02-20T12:00:12.297Z,32.22
2018-02-20T12:02:39.903Z,34.40
2018-02-20T12:05:07.448Z,29.60
2018-02-20T12:07:34.968Z,32.80
2018-02-20T12:10:02.538Z,29.37
2018-02-20T12:12:30.076Z,29.73
2018-02-20T12:14:58.392Z,28.20
2018-02-20T12:17:25.925Z,33.45
2018-02-20T12:19:53.488Z,30.10
2018-02-20T12:22:21.044Z,25.45
2018-02-20T12:24:48.614Z,28.38
2018-02-20T12:27:16.247Z,31.15
2018-02-20T12:29:44.546Z,27.00
2018-02-20T12:32:12.124Z,27.37
2018-02-20T12:34:39.671Z,33.10
2018-02-20T12:37:07.205Z,28.85
2018-02-20T12:39:35.534Z,23.83
2018-02-20T12:42:03.105Z,26.73
2018-02-20T12:44:30.658Z,21.95
2018-02-20T12:46:58.217Z,25.40
2018-02-20T12:49:25.789Z,25.27
2018-02-20T12:51:53.916Z,24.37
2018-02-20T12:54:21.458Z,22.80
2018-02-20T12:56:49.015Z,21.95
2018-02-20T12:59:17.425Z,22.52
2018-02-20T13:01:44.985Z,29.05
2018-02-20T13:04:12.542Z,25.83
2018-02-20T13:06:40.102Z,27.08
2018-02-20T13:09:07.658Z,27.23
2018-02-20T13:11:35.231Z,28.30
2018-02-20T13:14:02.784Z,29.95
2018-02-20T13:16:30.344Z,30.27
2018-02-20T13:18:57.887Z,34.97
2018-02-20T13:21:25.441Z,33.92
2018-02-20T13:23:53.748Z,27.10
2018-02-20T13:26:21.353Z,31.25
2018-02-20T13:28:48.916Z,27.42
2018-02-20T13:31:16.489Z,29.65
2018-02-20T13:33:44.801Z,29.70
2018-02-20T13:36:13.013Z,25.00
2018-02-20T13:38:40.564Z,32.47
2018-02-20T13:41:08.160Z,27.87
2018-02-20T13:43:36.464Z,31.17
2018-02-20T13:46:04.026Z,32.72
2018-02-20T13:48:31.565Z,25.12
2018-02-20T13:50:59.909Z,35.80
2018-02-20T13:53:27.441Z,34.30
2018-02-20T13:55:55.012Z,34.90
2018-02-20T13:58:22.556Z,33.00
2018-02-20T14:00:50.106Z,34.25
2018-02-20T14:03:17.661Z,35.28
2018-02-20T14:05:45.198Z,33.83
2018-02-20T14:08:13.516Z,36.20
2018-02-20T14:10:41.061Z,39.65
2018-02-20T14:13:08.621Z,37.92
2018-02-20T14:15:36.156Z,39.88
2018-02-20T14:18:04.474Z,39.58
2018-02-20T14:20:32.028Z,39.08
2018-02-20T14:22:59.601Z,36.97
2018-02-20T14:25:27.141Z,33.65
2018-02-20T14:27:55.480Z,35.90
2018-02-20T14:30:23.036Z,33.63
2018-02-20T14:32:51.343Z,37.75
2018-02-20T14:35:18.914Z,36.67
2018-02-20T14:37:47.333Z,39.40
2018-02-20T14:40:14.901Z,32.47
2018-02-20T14:42:42.447Z,53.30
2018-02-20T14:45:10.012Z,37.05
2018-02-20T14:47:37.553Z,35.53
2018-02-20T14:50:05.097Z,37.80
2018-02-20T14:52:32.628Z,43.50
2018-02-20T14:55:00.956Z,40.88
2018-02-20T14:57:28.503Z,35.13
2018-02-20T14:59:56.035Z,34.08
2018-02-20T15:02:23.576Z,34.83
2018-02-20T15:04:51.893Z,32.20
2018-02-20T15:07:19.437Z,34.70
2018-02-20T15:09:46.981Z,33.30
2018-02-20T15:12:14.550Z,44.53
2018-02-20T15:14:42.135Z,32.65
2018-02-20T15:17:09.668Z,35.30
2018-02-20T15:19:37.214Z,32.33
2018-02-20T15:22:05.569Z,32.63
2018-02-20T15:24:33.109Z,39.38
2018-02-20T15:27:00.685Z,35.08
2018-02-20T15:29:28.210Z,32.28
2018-02-20T15:31:55.756Z,37.05
2018-02-20T15:34:23.282Z,30.90
2018-02-20T15:36:51.638Z,39.15
2018-02-20T15:39:19.181Z,34.90
2018-02-20T15:41:46.733Z,35.15
2018-02-20T15:44:14.301Z,40.90
2018-02-20T15:46:41.833Z,35.17
2018-02-20T15:49:10.036Z,34.75
2018-02-20T15:51:37.580Z,31.30
2018-02-20T15:54:05.910Z,33.78
2018-02-20T15:56:33.461Z,33.42
2018-02-20T15:59:01.024Z,32.75
2018-02-20T16:01:28.586Z,36.17
2018-02-20T16:03:56.133Z,36.53
2018-02-20T16:06:23.681Z,37.70
2018-02-20T16:08:51.245Z,42.40
2018-02-20T16:11:18.821Z,41.10
2018-02-20T16:13:46.583Z,45.97
2018-02-20T16:16:14.931Z,37.50
2018-02-20T16:18:42.497Z,34.90
2018-02-20T16:21:10.097Z,37.67
2018-02-20T16:23:37.678Z,42.55
2018-02-20T16:26:05.987Z,41.08
2018-02-20T16:28:33.597Z,36.88
2018-02-20T16:31:01.155Z,38.10
2018-02-20T16:33:28.693Z,37.63
2018-02-20T16:35:56.317Z,36.88
2018-02-20T16:38:23.878Z,46.20
2018-02-20T16:40:51.433Z,34.85
2018-02-20T16:43:19.002Z,42.17
2018-02-20T16:45:46.676Z,37.72
2018-02-20T16:48:14.235Z,38.83
2018-02-20T16:50:41.793Z,41.03
2018-02-20T16:53:09.339Z,41.92
2018-02-20T16:55:36.908Z,38.35
2018-02-20T16:58:04.468Z,35.40
2018-02-20T17:00:32.087Z,40.33
2018-02-20T17:03:00.406Z,38.03
2018-02-20T17:05:27.972Z,34.60
2018-02-20T17:07:55.536Z,36.95
2018-02-20T17:10:23.110Z,39.63
2018-02-20T17:12:50.667Z,44.17
2018-02-20T17:15:18.209Z,40.35
2018-02-20T17:17:45.772Z,40.80
2018-02-20T17:20:13.317Z,39.55
2018-02-20T17:22:40.923Z,39.38
2018-02-20T17:25:08.510Z,40.20
2018-02-20T17:27:36.880Z,42.10
2018-02-20T17:30:04.431Z,41.67
2018-02-20T17:32:31.997Z,36.97
2018-02-20T17:34:59.532Z,41.40
2018-02-20T17:37:27.099Z,39.38
2018-02-20T17:39:54.655Z,38.13
2018-02-20T17:42:22.189Z,39.00
2018-02-20T17:44:49.761Z,41.47
2018-02-20T17:47:17.314Z,43.47
2018-02-20T17:49:44.888Z,35.42
2018-02-20T17:52:12.421Z,47.03
2018-02-20T17:54:40.012Z,43.00
2018-02-20T17:57:07.556Z,42.13
2018-02-20T17:59:35.132Z,46.17
2018-02-20T18:02:02.681Z,43.80
2018-02-20T18:04:30.215Z,43.15
2018-02-20T18:06:57.776Z,43.75
2018-02-20T18:09:25.349Z,38.03
2018-02-20T18:11:52.917Z,39.65
2018-02-20T18:14:20.454Z,38.95
2018-02-20T18:16:48.016Z,48.55
2018-02-20T18:19:15.602Z,41.70
2018-02-20T18:21:43.168Z,38.47
2018-02-20T18:24:10.738Z,44.63
2018-02-20T18:26:38.292Z,40.03
2018-02-20T18:29:05.852Z,48.05
2018-02-20T18:31:33.406Z,44.00
2018-02-20T18:34:00.981Z,43.28
2018-02-20T18:36:28.541Z,46.45
2018-02-20T18:38:56.109Z,45.10
2018-02-20T18:41:23.707Z,44.97
2018-02-20T18:43:52.022Z,42.62
2018-02-20T18:46:19.596Z,47.53
2018-02-20T18:48:47.231Z,40.60
2018-02-20T18:51:14.828Z,35.65
2018-02-20T18:53:42.376Z,40.58
2018-02-20T18:56:09.961Z,41.83
2018-02-20T18:58:37.505Z,41.40
2018-02-20T19:01:05.045Z,38.20
2018-02-20T19:03:32.604Z,44.78
2018-02-20T19:06:00.152Z,40.63
2018-02-20T19:08:27.713Z,47.15
2018-02-20T19:10:55.260Z,45.72
2018-02-20T19:13:22.832Z,40.92
2018-02-20T19:15:50.377Z,44.20
2018-02-20T19:18:17.922Z,39.25
2018-02-20T19:20:45.478Z,41.83
2018-02-20T19:23:13.805Z,41.50
2018-02-20T19:25:41.401Z,42.00
2018-02-20T19:28:09.746Z,41.97
2018-02-20T19:30:37.290Z,40.78
2018-02-20T19:33:04.884Z,39.42
2018-02-20T19:35:32.438Z,48.10
2018-02-20T19:37:59.996Z,40.85
2018-02-20T19:40:27.538Z,42.30
2018-02-20T19:42:55.273Z,47.35
2018-02-20T19:45:23.442Z,40.75
2018-02-20T19:47:51.009Z,39.50
2018-02-20T19:50:18.591Z,43.20
2018-02-20T19:52:46.170Z,35.92
2018-02-20T19:55:13.734Z,49.63
2018-02-20T19:57:41.300Z,55.50
2018-02-20T20:00:08.894Z,45.85
2018-02-20T20:02:36.431Z,43.45
2018-02-20T20:05:04.328Z,45.72
2018-02-20T20:07:31.884Z,44.05
2018-02-20T20:09:59.460Z,42.28
2018-02-20T20:12:26.996Z,43.63
2018-02-20T20:14:54.557Z,41.03
2018-02-20T20:17:22.132Z,41.83
2018-02-20T20:19:49.721Z,42.58
2018-02-20T20:22:18.480Z,48.95
2018-02-20T20:24:46.064Z,47.95
2018-02-20T20:27:18.469Z,42.45
2018-02-20T20:29:46.039Z,45.10
2018-02-20T20:32:13.601Z,52.05
2018-02-20T20:34:41.927Z,48.90
2018-02-20T20:37:09.490Z,43.80
2018-02-20T20:39:37.028Z,42.25
2018-02-20T20:42:04.624Z,49.20
2018-02-20T20:44:32.165Z,49.50
2018-02-20T20:46:59.777Z,47.17
2018-02-20T20:49:28.078Z,42.42
2018-02-20T20:51:55.860Z,50.75
2018-02-20T20:54:23.528Z,49.30
2018-02-20T20:56:51.588Z,43.90
2018-02-20T20:59:19.880Z,47.28
2018-02-20T21:01:47.934Z,53.78
2018-02-20T21:04:16.537Z,53.85
2018-02-20T21:06:44.920Z,50.97
2018-02-20T21:09:12.895Z,44.20
2018-02-20T21:11:40.935Z,46.88
2018-02-20T21:14:08.914Z,56.72
2018-02-20T21:16:36.974Z,48.65
2018-02-20T21:19:04.933Z,49.75
2018-02-20T21:21:32.906Z,56.10
2018-02-20T21:24:00.957Z,55.88
2018-02-20T21:26:29.689Z,57.10
2018-02-20T21:28:57.767Z,49.97
2018-02-20T21:31:26.073Z,65.00
2018-02-20T21:33:55.027Z,58.17
2018-02-20T21:36:22.560Z,64.80
2018-02-20T21:38:50.130Z,59.70
2018-02-20T21:41:17.684Z,55.38
2018-02-20T21:43:45.232Z,51.88
2018-02-20T21:46:13.588Z,62.08
2018-02-20T21:48:41.136Z,55.03
2018-02-20T21:51:08.694Z,53.75
2018-02-20T21:53:36.263Z,49.50
2018-02-20T21:56:03.873Z,51.70
2018-02-20T21:58:31.446Z,55.03
2018-02-20T22:00:58.993Z,54.53
2018-02-20T22:03:26.572Z,49.40
2018-02-20T22:05:54.161Z,60.65
2018-02-20T22:08:21.717Z,55.63
2018-02-20T22:10:49.281Z,58.90
2018-02-20T22:13:16.844Z,61.33
2018-02-20T22:15:44.387Z,53.75
2018-02-20T22:18:11.985Z,50.72
2018-02-20T22:20:40.293Z,58.40
2018-02-20T22:23:07.865Z,63.45
2018-02-20T22:25:35.404Z,60.63
2018-02-20T22:28:02.965Z,59.55
2018-02-20T22:30:30.496Z,56.72
2018-02-20T22:32:58.035Z,60.12
2018-02-20T22:35:25.596Z,63.90
2018-02-20T22:37:53.141Z,55.88
2018-02-20T22:40:20.719Z,59.42
2018-02-20T22:42:48.292Z,50.08
2018-02-20T22:45:16.608Z,56.53
2018-02-20T22:47:44.182Z,62.55
2018-02-20T22:50:11.761Z,63.25
2018-02-20T22:52:39.293Z,55.75
2018-02-20T22:55:06.849Z,72.03
2018-02-20T22:57:34.412Z,58.75
2018-02-20T23:00:01.978Z,54.83
2018-02-20T23:02:29.584Z,57.92
2018-02-20T23:04:57.185Z,66.85
2018-02-20T23:07:24.730Z,53.75
2018-02-20T23:09:53.055Z,56.88
2018-02-20T23:12:20.608Z,55.17
2018-02-20T23:14:48.164Z,60.35
2018-02-20T23:17:15.723Z,56.58
2018-02-20T23:19:43.268Z,52.67
2018-02-20T23:22:10.833Z,57.92
2018-02-20T23:24:38.380Z,60.08
2018-02-20T23:27:05.950Z,59.55
2018-02-20T23:29:33.489Z,56.30
2018-02-20T23:32:01.813Z,54.63
2018-02-20T23:34:30.213Z,61.03
2018-02-20T23:36:57.763Z,60.22
2018-02-20T23:39:25.317Z,58.28
2018-02-20T23:41:52.872Z,63.00
2018-02-20T23:44:20.406Z,61.88
2018-02-20T23:46:47.940Z,61.08
2018-02-20T23:49:16.271Z,62.70
2018-02-20T23:51:43.811Z,61.37
2018-02-20T23:54:11.374Z,60.25
2018-02-20T23:56:38.965Z,59.13
2018-02-20T23:59:06.524Z,66.70
